Upstream stations:
Downstream station:
SHEF ID: MTCO2 Tar Creek at 22nd Street Bridge
STATION TYPE:
PRECIP STAGE STAGE(2) RIV-FLOW BAT-LOAD
in ft ft cfs volt
Ccp-Rev Ccp-Rev Ccp-Rev Ccp-Rev Ccp-Rev
(US/Central)
04/04 00:00 0.00 3.99 4.02 17 12.41
04/04 01:00 0.20 4.02 4.04 19 12.41
04/04 02:00 0.06 4.02 4.04 19 12.33
04/04 03:00 0.02 4.07 4.07 22 12.33
04/04 04:00 0.24 4.17 4.16 30 12.33
04/04 05:00 0.14 4.24 4.22 36 12.25
04/04 06:00 0.03 4.30 4.30 42 12.25
04/04 07:00 0.01 4.42 4.41 56 12.25
04/04 08:00 0.01 4.50 4.49 65 12.25
04/04 09:00 0.01 4.56 4.54 72 12.33
04/04 10:00 0.00 4.59 4.57 75 12.57
04/04 11:00 0.00 4.61 4.59 77 13.05
04/04 12:00 0.00 4.63 4.60 80 13.21
04/04 13:00 0.00 4.63 4.61 80 13.37
04/04 14:00 0.00 4.64 4.62 81 13.29
04/04 15:00 0.00 4.65 4.63 82 13.29
04/04 16:00 0.00 4.67 4.65 84 13.29
04/04 17:00 0.00 4.68 4.67 86 13.21
04/04 18:00 0.00 4.69 4.68 87 12.89
04/04 19:00 0.00 4.69 4.67 87 12.65
04/04 20:00 0.00 4.69 4.66 87 12.49
04/04 21:00 0.01 4.68 4.66 86 12.41
04/04 22:00 0.02 4.67 4.65 84 12.41
04/04 23:00 0.00 4.66 4.64 83 12.41